sensor_id;sensor_type;location;lat;lon;timestamp;P1;P2;P0
62591;PMS5003;48659;41.622;2.276;2023-01-04T00:02:27;38;35;
62591;PMS5003;48659;41.622;2.276;2023-01-04T00:04:54;38;36;
62591;PMS5003;48659;41.622;2.276;2023-01-04T00:07:21;37;33;
62591;PMS5003;48659;41.622;2.276;2023-01-04T00:09:48;41;39;
62591;PMS5003;48659;41.622;2.276;2023-01-04T00:12:16;42;35;
62591;PMS5003;48659;41.622;2.276;2023-01-04T00:14:46;41;37;
62591;PMS5003;48659;41.622;2.276;2023-01-04T00:17:13;42;36;
62591;PMS5003;48659;41.622;2.276;2023-01-04T00:19:41;38;33;
62591;PMS5003;48659;41.622;2.276;2023-01-04T00:22:16;46;42;
62591;PMS5003;48659;41.622;2.276;2023-01-04T00:24:43;42;40;
62591;PMS5003;48659;41.622;2.276;2023-01-04T00:27:11;40;37;
62591;PMS5003;48659;41.622;2.276;2023-01-04T00:29:39;38;38;
62591;PMS5003;48659;41.622;2.276;2023-01-04T00:32:07;43;42;
62591;PMS5003;48659;41.622;2.276;2023-01-04T00:34:34;40;38;
62591;PMS5003;48659;41.622;2.276;2023-01-04T00:37:02;46;38;
62591;PMS5003;48659;41.622;2.276;2023-01-04T00:39:29;37;34;
62591;PMS5003;48659;41.622;2.276;2023-01-04T00:41:56;40;38;
62591;PMS5003;48659;41.622;2.276;2023-01-04T00:44:23;38;35;
62591;PMS5003;48659;41.622;2.276;2023-01-04T00:46:51;36;32;
62591;PMS5003;48659;41.622;2.276;2023-01-04T00:49:19;34;32;
62591;PMS5003;48659;41.622;2.276;2023-01-04T00:51:46;39;36;
62591;PMS5003;48659;41.622;2.276;2023-01-04T00:54:14;34;29;
62591;PMS5003;48659;41.622;2.276;2023-01-04T00:56:42;42;37;
62591;PMS5003;48659;41.622;2.276;2023-01-04T00:59:14;36;33;
62591;PMS5003;48659;41.622;2.276;2023-01-04T01:01:44;28;27;
62591;PMS5003;48659;41.622;2.276;2023-01-04T01:04:17;30;27;
62591;PMS5003;48659;41.622;2.276;2023-01-04T01:06:46;28;27;
62591;PMS5003;48659;41.622;2.276;2023-01-04T01:09:17;35;31;
62591;PMS5003;48659;41.622;2.276;2023-01-04T01:11:45;30;28;
62591;PMS5003;48659;41.622;2.276;2023-01-04T01:14:14;36;33;
62591;PMS5003;48659;41.622;2.276;2023-01-04T01:16:43;37;36;
62591;PMS5003;48659;41.622;2.276;2023-01-04T01:19:17;37;33;
62591;PMS5003;48659;41.622;2.276;2023-01-04T01:21:44;37;34;
62591;PMS5003;48659;41.622;2.276;2023-01-04T01:24:18;30;30;
62591;PMS5003;48659;41.622;2.276;2023-01-04T01:26:45;34;32;
62591;PMS5003;48659;41.622;2.276;2023-01-04T01:29:13;40;34;
62591;PMS5003;48659;41.622;2.276;2023-01-04T01:31:41;33;31;
62591;PMS5003;48659;41.622;2.276;2023-01-04T01:34:09;37;36;
62591;PMS5003;48659;41.622;2.276;2023-01-04T01:36:37;39;37;
62591;PMS5003;48659;41.622;2.276;2023-01-04T01:39:04;38;37;
62591;PMS5003;48659;41.622;2.276;2023-01-04T01:41:32;42;39;
62591;PMS5003;48659;41.622;2.276;2023-01-04T01:44:02;42;41;
62591;PMS5003;48659;41.622;2.276;2023-01-04T01:46:33;37;37;
62591;PMS5003;48659;41.622;2.276;2023-01-04T01:49:05;37;32;
62591;PMS5003;48659;41.622;2.276;2023-01-04T01:51:40;39;36;
62591;PMS5003;48659;41.622;2.276;2023-01-04T01:54:11;36;33;
62591;PMS5003;48659;41.622;2.276;2023-01-04T01:56:47;36;35;
62591;PMS5003;48659;41.622;2.276;2023-01-04T01:59:20;41;37;
62591;PMS5003;48659;41.622;2.276;2023-01-04T02:01:49;40;37;
62591;PMS5003;48659;41.622;2.276;2023-01-04T02:04:27;44;41;
62591;PMS5003;48659;41.622;2.276;2023-01-04T02:06:56;43;37;
62591;PMS5003;48659;41.622;2.276;2023-01-04T02:09:25;31;29;
62591;PMS5003;48659;41.622;2.276;2023-01-04T02:11:56;34;30;
62591;PMS5003;48659;41.622;2.276;2023-01-04T02:14:23;29;29;
62591;PMS5003;48659;41.622;2.276;2023-01-04T02:16:55;31;31;
62591;PMS5003;48659;41.622;2.276;2023-01-04T02:19:41;35;31;
62591;PMS5003;48659;41.622;2.276;2023-01-04T02:22:27;35;32;
62591;PMS5003;48659;41.622;2.276;2023-01-04T02:27:34;36;34;
62591;PMS5003;48659;41.622;2.276;2023-01-04T02:30:30;47;42;
62591;PMS5003;48659;41.622;2.276;2023-01-04T02:33:11;40;37;
62591;PMS5003;48659;41.622;2.276;2023-01-04T02:35:49;36;33;
62591;PMS5003;48659;41.622;2.276;2023-01-04T02:38:24;38;33;
62591;PMS5003;48659;41.622;2.276;2023-01-04T02:41:00;36;33;
62591;PMS5003;48659;41.622;2.276;2023-01-04T02:43:36;34;30;
62591;PMS5003;48659;41.622;2.276;2023-01-04T02:46:18;36;36;
62591;PMS5003;48659;41.622;2.276;2023-01-04T02:48:52;37;35;
62591;PMS5003;48659;41.622;2.276;2023-01-04T02:51:28;37;37;
62591;PMS5003;48659;41.622;2.276;2023-01-04T02:53:57;45;41;
62591;PMS5003;48659;41.622;2.276;2023-01-04T02:56:32;41;38;
62591;PMS5003;48659;41.622;2.276;2023-01-04T02:59:22;43;41;
62591;PMS5003;48659;41.622;2.276;2023-01-04T03:02:00;38;35;
62591;PMS5003;48659;41.622;2.276;2023-01-04T03:04:38;38;33;
62591;PMS5003;48659;41.622;2.276;2023-01-04T03:07:26;48;48;
62591;PMS5003;48659;41.622;2.276;2023-01-04T03:10:03;48;42;
62591;PMS5003;48659;41.622;2.276;2023-01-04T03:12:36;42;41;
62591;PMS5003;48659;41.622;2.276;2023-01-04T03:15:11;45;44;
62591;PMS5003;48659;41.622;2.276;2023-01-04T03:17:43;45;40;
62591;PMS5003;48659;41.622;2.276;2023-01-04T03:20:18;49;42;
62591;PMS5003;48659;41.622;2.276;2023-01-04T03:22:49;45;43;
62591;PMS5003;48659;41.622;2.276;2023-01-04T03:25:23;45;42;
62591;PMS5003;48659;41.622;2.276;2023-01-04T03:27:54;49;45;
62591;PMS5003;48659;41.622;2.276;2023-01-04T03:30:25;46;45;
62591;PMS5003;48659;41.622;2.276;2023-01-04T03:32:57;43;42;
62591;PMS5003;48659;41.622;2.276;2023-01-04T03:35:34;44;40;
62591;PMS5003;48659;41.622;2.276;2023-01-04T03:38:07;49;46;
62591;PMS5003;48659;41.622;2.276;2023-01-04T03:40:42;52;47;
62591;PMS5003;48659;41.622;2.276;2023-01-04T03:43:19;48;46;
62591;PMS5003;48659;41.622;2.276;2023-01-04T03:45:49;42;42;
62591;PMS5003;48659;41.622;2.276;2023-01-04T03:48:21;50;49;
62591;PMS5003;48659;41.622;2.276;2023-01-04T03:50:58;56;49;
62591;PMS5003;48659;41.622;2.276;2023-01-04T03:53:32;58;52;
62591;PMS5003;48659;41.622;2.276;2023-01-04T03:56:04;54;49;
62591;PMS5003;48659;41.622;2.276;2023-01-04T03:58:35;47;45;
62591;PMS5003;48659;41.622;2.276;2023-01-04T04:01:02;53;48;
62591;PMS5003;48659;41.622;2.276;2023-01-04T04:03:31;52;48;
62591;PMS5003;48659;41.622;2.276;2023-01-04T04:05:58;53;53;
62591;PMS5003;48659;41.622;2.276;2023-01-04T04:08:26;53;49;
62591;PMS5003;48659;41.622;2.276;2023-01-04T04:10:55;61;55;
62591;PMS5003;48659;41.622;2.276;2023-01-04T04:13:24;62;56;
62591;PMS5003;48659;41.622;2.276;2023-01-04T04:15:52;64;56;
62591;PMS5003;48659;41.622;2.276;2023-01-04T04:18:20;60;54;
62591;PMS5003;48659;41.622;2.276;2023-01-04T04:20:47;54;48;
62591;PMS5003;48659;41.622;2.276;2023-01-04T04:23:22;57;46;
62591;PMS5003;48659;41.622;2.276;2023-01-04T04:25:49;54;51;
62591;PMS5003;48659;41.622;2.276;2023-01-04T04:28:17;56;52;
62591;PMS5003;48659;41.622;2.276;2023-01-04T04:30:44;53;51;
62591;PMS5003;48659;41.622;2.276;2023-01-04T04:33:14;57;53;
62591;PMS5003;48659;41.622;2.276;2023-01-04T04:35:42;54;48;
62591;PMS5003;48659;41.622;2.276;2023-01-04T04:38:17;55;52;
62591;PMS5003;48659;41.622;2.276;2023-01-04T04:40:45;54;53;
62591;PMS5003;48659;41.622;2.276;2023-01-04T04:43:17;57;52;
62591;PMS5003;48659;41.622;2.276;2023-01-04T04:45:44;58;55;
62591;PMS5003;48659;41.622;2.276;2023-01-04T04:48:11;55;54;
62591;PMS5003;48659;41.622;2.276;2023-01-04T04:50:40;60;56;
62591;PMS5003;48659;41.622;2.276;2023-01-04T04:53:07;59;53;
62591;PMS5003;48659;41.622;2.276;2023-01-04T04:55:34;59;55;
62591;PMS5003;48659;41.622;2.276;2023-01-04T04:58:01;69;57;
62591;PMS5003;48659;41.622;2.276;2023-01-04T05:00:32;53;47;
62591;PMS5003;48659;41.622;2.276;2023-01-04T05:02:59;52;50;
62591;PMS5003;48659;41.622;2.276;2023-01-04T05:05:27;55;51;
62591;PMS5003;48659;41.622;2.276;2023-01-04T05:07:55;58;56;
62591;PMS5003;48659;41.622;2.276;2023-01-04T05:10:22;51;48;
62591;PMS5003;48659;41.622;2.276;2023-01-04T05:12:54;60;54;
62591;PMS5003;48659;41.622;2.276;2023-01-04T05:15:21;54;51;
62591;PMS5003;48659;41.622;2.276;2023-01-04T05:17:49;57;53;
62591;PMS5003;48659;41.622;2.276;2023-01-04T05:20:17;56;53;
62591;PMS5003;48659;41.622;2.276;2023-01-04T05:22:44;55;52;
62591;PMS5003;48659;41.622;2.276;2023-01-04T05:25:12;56;55;
62591;PMS5003;48659;41.622;2.276;2023-01-04T05:27:41;50;49;
62591;PMS5003;48659;41.622;2.276;2023-01-04T05:30:11;59;55;
62591;PMS5003;48659;41.622;2.276;2023-01-04T05:32:40;51;50;
62591;PMS5003;48659;41.622;2.276;2023-01-04T05:35:07;59;53;
62591;PMS5003;48659;41.622;2.276;2023-01-04T05:37:35;65;60;
62591;PMS5003;48659;41.622;2.276;2023-01-04T05:40:03;65;60;
62591;PMS5003;48659;41.622;2.276;2023-01-04T05:42:31;59;54;
62591;PMS5003;48659;41.622;2.276;2023-01-04T05:44:59;63;58;
62591;PMS5003;48659;41.622;2.276;2023-01-04T05:47:26;54;51;
62591;PMS5003;48659;41.622;2.276;2023-01-04T05:49:54;59;55;
62591;PMS5003;48659;41.622;2.276;2023-01-04T05:52:22;63;57;
62591;PMS5003;48659;41.622;2.276;2023-01-04T05:54:49;65;56;
62591;PMS5003;48659;41.622;2.276;2023-01-04T05:57:17;61;59;
62591;PMS5003;48659;41.622;2.276;2023-01-04T05:59:45;52;47;
62591;PMS5003;48659;41.622;2.276;2023-01-04T06:02:17;54;46;
62591;PMS5003;48659;41.622;2.276;2023-01-04T06:04:46;53;51;
62591;PMS5003;48659;41.622;2.276;2023-01-04T06:07:15;58;53;
62591;PMS5003;48659;41.622;2.276;2023-01-04T06:09:43;55;48;
62591;PMS5003;48659;41.622;2.276;2023-01-04T06:12:17;52;49;
62591;PMS5003;48659;41.622;2.276;2023-01-04T06:14:45;62;55;
62591;PMS5003;48659;41.622;2.276;2023-01-04T06:17:12;73;66;
62591;PMS5003;48659;41.622;2.276;2023-01-04T06:19:40;62;57;
62591;PMS5003;48659;41.622;2.276;2023-01-04T06:22:07;62;59;
62591;PMS5003;48659;41.622;2.276;2023-01-04T06:24:35;70;63;
62591;PMS5003;48659;41.622;2.276;2023-01-04T06:27:03;57;55;
62591;PMS5003;48659;41.622;2.276;2023-01-04T06:29:30;60;57;
62591;PMS5003;48659;41.622;2.276;2023-01-04T06:31:58;60;59;
62591;PMS5003;48659;41.622;2.276;2023-01-04T06:34:25;62;60;
62591;PMS5003;48659;41.622;2.276;2023-01-04T06:36:53;65;61;
62591;PMS5003;48659;41.622;2.276;2023-01-04T06:39:21;66;63;
62591;PMS5003;48659;41.622;2.276;2023-01-04T06:41:49;62;60;
62591;PMS5003;48659;41.622;2.276;2023-01-04T06:44:17;75;68;
62591;PMS5003;48659;41.622;2.276;2023-01-04T06:46:47;65;63;
62591;PMS5003;48659;41.622;2.276;2023-01-04T06:49:14;67;62;
62591;PMS5003;48659;41.622;2.276;2023-01-04T06:51:41;65;63;
62591;PMS5003;48659;41.622;2.276;2023-01-04T06:54:09;74;63;
62591;PMS5003;48659;41.622;2.276;2023-01-04T06:56:37;66;64;
62591;PMS5003;48659;41.622;2.276;2023-01-04T06:59:05;72;69;
62591;PMS5003;48659;41.622;2.276;2023-01-04T07:01:33;68;62;
62591;PMS5003;48659;41.622;2.276;2023-01-04T07:04:06;62;59;
62591;PMS5003;48659;41.622;2.276;2023-01-04T07:06:33;65;60;
62591;PMS5003;48659;41.622;2.276;2023-01-04T07:09:00;68;62;
62591;PMS5003;48659;41.622;2.276;2023-01-04T07:11:28;67;62;
62591;PMS5003;48659;41.622;2.276;2023-01-04T07:13:55;69;64;
62591;PMS5003;48659;41.622;2.276;2023-01-04T07:16:22;63;60;
62591;PMS5003;48659;41.622;2.276;2023-01-04T07:18:50;69;65;
62591;PMS5003;48659;41.622;2.276;2023-01-04T07:21:17;63;58;
62591;PMS5003;48659;41.622;2.276;2023-01-04T07:23:45;62;60;
62591;PMS5003;48659;41.622;2.276;2023-01-04T07:26:13;72;65;
62591;PMS5003;48659;41.622;2.276;2023-01-04T07:28:40;72;61;
62591;PMS5003;48659;41.622;2.276;2023-01-04T07:31:08;75;69;
62591;PMS5003;48659;41.622;2.276;2023-01-04T07:33:49;71;67;
62591;PMS5003;48659;41.622;2.276;2023-01-04T07:36:17;66;60;
62591;PMS5003;48659;41.622;2.276;2023-01-04T07:38:44;76;71;
62591;PMS5003;48659;41.622;2.276;2023-01-04T07:41:12;71;70;
62591;PMS5003;48659;41.622;2.276;2023-01-04T07:43:39;69;63;
62591;PMS5003;48659;41.622;2.276;2023-01-04T07:46:06;68;62;
62591;PMS5003;48659;41.622;2.276;2023-01-04T07:48:34;73;65;
62591;PMS5003;48659;41.622;2.276;2023-01-04T07:51:01;68;60;
62591;PMS5003;48659;41.622;2.276;2023-01-04T07:53:31;81;73;
62591;PMS5003;48659;41.622;2.276;2023-01-04T07:55:59;83;72;
62591;PMS5003;48659;41.622;2.276;2023-01-04T07:58:30;73;70;
62591;PMS5003;48659;41.622;2.276;2023-01-04T08:01:04;78;67;
62591;PMS5003;48659;41.622;2.276;2023-01-04T08:03:32;79;77;
62591;PMS5003;48659;41.622;2.276;2023-01-04T08:06:01;69;64;
62591;PMS5003;48659;41.622;2.276;2023-01-04T08:08:29;76;72;
62591;PMS5003;48659;41.622;2.276;2023-01-04T08:10:59;73;68;
62591;PMS5003;48659;41.622;2.276;2023-01-04T08:13:27;85;77;
62591;PMS5003;48659;41.622;2.276;2023-01-04T08:15:55;85;74;
62591;PMS5003;48659;41.622;2.276;2023-01-04T08:18:22;77;69;
62591;PMS5003;48659;41.622;2.276;2023-01-04T08:20:49;76;72;
62591;PMS5003;48659;41.622;2.276;2023-01-04T08:23:26;77;72;
62591;PMS5003;48659;41.622;2.276;2023-01-04T08:25:53;74;66;
62591;PMS5003;48659;41.622;2.276;2023-01-04T08:28:20;74;71;
62591;PMS5003;48659;41.622;2.276;2023-01-04T08:30:48;73;69;
62591;PMS5003;48659;41.622;2.276;2023-01-04T08:33:16;76;68;
62591;PMS5003;48659;41.622;2.276;2023-01-04T08:35:44;80;76;
62591;PMS5003;48659;41.622;2.276;2023-01-04T08:38:11;91;78;
62591;PMS5003;48659;41.622;2.276;2023-01-04T08:40:39;81;79;
62591;PMS5003;48659;41.622;2.276;2023-01-04T08:43:07;81;78;
62591;PMS5003;48659;41.622;2.276;2023-01-04T08:45:34;83;79;
62591;PMS5003;48659;41.622;2.276;2023-01-04T08:48:02;92;88;
62591;PMS5003;48659;41.622;2.276;2023-01-04T08:50:30;87;79;
62591;PMS5003;48659;41.622;2.276;2023-01-04T08:52:57;92;85;
62591;PMS5003;48659;41.622;2.276;2023-01-04T08:55:25;77;69;
62591;PMS5003;48659;41.622;2.276;2023-01-04T08:57:52;79;72;
62591;PMS5003;48659;41.622;2.276;2023-01-04T09:00:19;71;67;
62591;PMS5003;48659;41.622;2.276;2023-01-04T09:02:47;81;75;
62591;PMS5003;48659;41.622;2.276;2023-01-04T09:05:15;73;70;
62591;PMS5003;48659;41.622;2.276;2023-01-04T09:07:42;66;62;
62591;PMS5003;48659;41.622;2.276;2023-01-04T09:10:19;73;63;
62591;PMS5003;48659;41.622;2.276;2023-01-04T09:12:47;65;62;
62591;PMS5003;48659;41.622;2.276;2023-01-04T09:15:14;69;65;
62591;PMS5003;48659;41.622;2.276;2023-01-04T09:17:42;70;69;
62591;PMS5003;48659;41.622;2.276;2023-01-04T09:20:10;69;64;
62591;PMS5003;48659;41.622;2.276;2023-01-04T09:22:38;71;69;
62591;PMS5003;48659;41.622;2.276;2023-01-04T09:25:06;79;75;
62591;PMS5003;48659;41.622;2.276;2023-01-04T09:27:33;71;69;
62591;PMS5003;48659;41.622;2.276;2023-01-04T09:30:00;66;63;
62591;PMS5003;48659;41.622;2.276;2023-01-04T09:32:28;70;66;
62591;PMS5003;48659;41.622;2.276;2023-01-04T09:34:56;73;66;
62591;PMS5003;48659;41.622;2.276;2023-01-04T09:37:23;66;64;
62591;PMS5003;48659;41.622;2.276;2023-01-04T09:39:50;73;70;
62591;PMS5003;48659;41.622;2.276;2023-01-04T09:42:19;79;69;
62591;PMS5003;48659;41.622;2.276;2023-01-04T09:44:53;77;73;
62591;PMS5003;48659;41.622;2.276;2023-01-04T09:47:26;73;65;
62591;PMS5003;48659;41.622;2.276;2023-01-04T09:50:03;69;63;
62591;PMS5003;48659;41.622;2.276;2023-01-04T09:52:39;77;71;
62591;PMS5003;48659;41.622;2.276;2023-01-04T09:55:15;67;65;
62591;PMS5003;48659;41.622;2.276;2023-01-04T09:57:47;78;73;
62591;PMS5003;48659;41.622;2.276;2023-01-04T10:00:20;84;72;
62591;PMS5003;48659;41.622;2.276;2023-01-04T10:02:55;66;65;
62591;PMS5003;48659;41.622;2.276;2023-01-04T10:05:29;73;66;
62591;PMS5003;48659;41.622;2.276;2023-01-04T10:07:58;64;63;
62591;PMS5003;48659;41.622;2.276;2023-01-04T10:10:32;76;70;
62591;PMS5003;48659;41.622;2.276;2023-01-04T10:13:13;75;68;
62591;PMS5003;48659;41.622;2.276;2023-01-04T10:15:52;85;77;
62591;PMS5003;48659;41.622;2.276;2023-01-04T10:18:25;76;68;
62591;PMS5003;48659;41.622;2.276;2023-01-04T10:21:06;72;66;
62591;PMS5003;48659;41.622;2.276;2023-01-04T10:23:48;72;66;
62591;PMS5003;48659;41.622;2.276;2023-01-04T10:26:24;66;63;
62591;PMS5003;48659;41.622;2.276;2023-01-04T10:29:02;72;67;
62591;PMS5003;48659;41.622;2.276;2023-01-04T10:31:43;67;60;
62591;PMS5003;48659;41.622;2.276;2023-01-04T10:34:18;72;66;
62591;PMS5003;48659;41.622;2.276;2023-01-04T10:36:50;62;57;
62591;PMS5003;48659;41.622;2.276;2023-01-04T10:39:23;65;58;
62591;PMS5003;48659;41.622;2.276;2023-01-04T10:41:54;62;59;
62591;PMS5003;48659;41.622;2.276;2023-01-04T10:44:26;60;59;
62591;PMS5003;48659;41.622;2.276;2023-01-04T10:47:16;66;63;
62591;PMS5003;48659;41.622;2.276;2023-01-04T10:49:50;73;70;
62591;PMS5003;48659;41.622;2.276;2023-01-04T10:52:21;68;64;
62591;PMS5003;48659;41.622;2.276;2023-01-04T10:54:56;64;59;
62591;PMS5003;48659;41.622;2.276;2023-01-04T10:57:29;60;56;
62591;PMS5003;48659;41.622;2.276;2023-01-04T11:00:04;62;58;
62591;PMS5003;48659;41.622;2.276;2023-01-04T11:02:50;66;57;
62591;PMS5003;48659;41.622;2.276;2023-01-04T11:05:25;65;59;
62591;PMS5003;48659;41.622;2.276;2023-01-04T11:07:56;75;65;
62591;PMS5003;48659;41.622;2.276;2023-01-04T11:10:30;69;66;
62591;PMS5003;48659;41.622;2.276;2023-01-04T11:13:02;65;63;
62591;PMS5003;48659;41.622;2.276;2023-01-04T11:15:30;66;63;
62591;PMS5003;48659;41.622;2.276;2023-01-04T11:17:59;68;60;
62591;PMS5003;48659;41.622;2.276;2023-01-04T11:20:29;65;60;
62591;PMS5003;48659;41.622;2.276;2023-01-04T11:22:57;60;56;
62591;PMS5003;48659;41.622;2.276;2023-01-04T11:25:32;65;62;
62591;PMS5003;48659;41.622;2.276;2023-01-04T11:28:07;63;60;
62591;PMS5003;48659;41.622;2.276;2023-01-04T11:30:49;69;61;
62591;PMS5003;48659;41.622;2.276;2023-01-04T11:33:22;68;64;
62591;PMS5003;48659;41.622;2.276;2023-01-04T11:35:50;61;58;
62591;PMS5003;48659;41.622;2.276;2023-01-04T11:38:19;60;59;
62591;PMS5003;48659;41.622;2.276;2023-01-04T11:41:04;62;61;
62591;PMS5003;48659;41.622;2.276;2023-01-04T11:43:33;64;59;
62591;PMS5003;48659;41.622;2.276;2023-01-04T11:46:02;62;57;
62591;PMS5003;48659;41.622;2.276;2023-01-04T11:48:33;60;59;
62591;PMS5003;48659;41.622;2.276;2023-01-04T11:51:03;66;60;
62591;PMS5003;48659;41.622;2.276;2023-01-04T11:53:34;69;64;
62591;PMS5003;48659;41.622;2.276;2023-01-04T11:56:12;68;63;
62591;PMS5003;48659;41.622;2.276;2023-01-04T11:58:43;66;60;
62591;PMS5003;48659;41.622;2.276;2023-01-04T12:01:26;62;59;
62591;PMS5003;48659;41.622;2.276;2023-01-04T12:03:53;70;66;
62591;PMS5003;48659;41.622;2.276;2023-01-04T12:06:21;66;64;
62591;PMS5003;48659;41.622;2.276;2023-01-04T12:08:56;79;76;
62591;PMS5003;48659;41.622;2.276;2023-01-04T12:11:25;84;76;
62591;PMS5003;48659;41.622;2.276;2023-01-04T12:13:56;78;75;
62591;PMS5003;48659;41.622;2.276;2023-01-04T12:16:28;78;73;
62591;PMS5003;48659;41.622;2.276;2023-01-04T12:19:10;72;60;
62591;PMS5003;48659;41.622;2.276;2023-01-04T12:21:40;72;68;
62591;PMS5003;48659;41.622;2.276;2023-01-04T12:24:15;74;68;
62591;PMS5003;48659;41.622;2.276;2023-01-04T12:26:46;68;63;
62591;PMS5003;48659;41.622;2.276;2023-01-04T12:29:32;65;58;
62591;PMS5003;48659;41.622;2.276;2023-01-04T12:32:41;72;65;
62591;PMS5003;48659;41.622;2.276;2023-01-04T12:36:16;63;61;
62591;PMS5003;48659;41.622;2.276;2023-01-04T12:39:01;58;51;
62591;PMS5003;48659;41.622;2.276;2023-01-04T12:42:13;63;58;
62591;PMS5003;48659;41.622;2.276;2023-01-04T12:45:47;53;51;
62591;PMS5003;48659;41.622;2.276;2023-01-04T12:48:57;50;47;
62591;PMS5003;48659;41.622;2.276;2023-01-04T12:51:25;42;42;
62591;PMS5003;48659;41.622;2.276;2023-01-04T12:53:54;42;40;
62591;PMS5003;48659;41.622;2.276;2023-01-04T12:57:08;44;38;
62591;PMS5003;48659;41.622;2.276;2023-01-04T12:59:52;40;37;
62591;PMS5003;48659;41.622;2.276;2023-01-04T13:02:22;44;41;
62591;PMS5003;48659;41.622;2.276;2023-01-04T13:04:51;42;37;
62591;PMS5003;48659;41.622;2.276;2023-01-04T13:07:21;33;30;
62591;PMS5003;48659;41.622;2.276;2023-01-04T13:09:53;34;33;
62591;PMS5003;48659;41.622;2.276;2023-01-04T13:12:58;34;34;
62591;PMS5003;48659;41.622;2.276;2023-01-04T13:15:42;34;32;
62591;PMS5003;48659;41.622;2.276;2023-01-04T13:18:33;35;33;
62591;PMS5003;48659;41.622;2.276;2023-01-04T13:21:06;49;47;
62591;PMS5003;48659;41.622;2.276;2023-01-04T13:23:37;29;24;
62591;PMS5003;48659;41.622;2.276;2023-01-04T13:26:26;28;26;
62591;PMS5003;48659;41.622;2.276;2023-01-04T13:29:12;32;30;
62591;PMS5003;48659;41.622;2.276;2023-01-04T13:31:44;29;25;
62591;PMS5003;48659;41.622;2.276;2023-01-04T13:34:17;24;24;
62591;PMS5003;48659;41.622;2.276;2023-01-04T13:36:55;21;20;
62591;PMS5003;48659;41.622;2.276;2023-01-04T13:39:30;16;16;
62591;PMS5003;48659;41.622;2.276;2023-01-04T13:41:57;22;20;
62591;PMS5003;48659;41.622;2.276;2023-01-04T13:44:30;27;25;
62591;PMS5003;48659;41.622;2.276;2023-01-04T13:47:16;30;28;
62591;PMS5003;48659;41.622;2.276;2023-01-04T13:49:45;15;15;
62591;PMS5003;48659;41.622;2.276;2023-01-04T13:52:18;12;12;
62591;PMS5003;48659;41.622;2.276;2023-01-04T13:54:46;13;11;
62591;PMS5003;48659;41.622;2.276;2023-01-04T13:57:14;13;13;
62591;PMS5003;48659;41.622;2.276;2023-01-04T13:59:42;21;20;
62591;PMS5003;48659;41.622;2.276;2023-01-04T14:02:19;9;9;
62591;PMS5003;48659;41.622;2.276;2023-01-04T14:04:47;6;6;
62591;PMS5003;48659;41.622;2.276;2023-01-04T14:07:18;6;6;
62591;PMS5003;48659;41.622;2.276;2023-01-04T14:09:48;8;6;
62591;PMS5003;48659;41.622;2.276;2023-01-04T14:12:20;7;6;
62591;PMS5003;48659;41.622;2.276;2023-01-04T14:14:52;9;9;
62591;PMS5003;48659;41.622;2.276;2023-01-04T14:17:22;12;10;
62591;PMS5003;48659;41.622;2.276;2023-01-04T14:19:56;9;9;
62591;PMS5003;48659;41.622;2.276;2023-01-04T14:22:27;9;8;
62591;PMS5003;48659;41.622;2.276;2023-01-04T14:25:00;11;11;
62591;PMS5003;48659;41.622;2.276;2023-01-04T14:28:15;15;15;
62591;PMS5003;48659;41.622;2.276;2023-01-04T14:30:45;20;15;
62591;PMS5003;48659;41.622;2.276;2023-01-04T14:33:14;13;12;
62591;PMS5003;48659;41.622;2.276;2023-01-04T14:35:43;30;29;
62591;PMS5003;48659;41.622;2.276;2023-01-04T14:38:12;11;10;
62591;PMS5003;48659;41.622;2.276;2023-01-04T14:40:42;21;17;
62591;PMS5003;48659;41.622;2.276;2023-01-04T14:43:44;23;22;
62591;PMS5003;48659;41.622;2.276;2023-01-04T14:46:13;15;12;
62591;PMS5003;48659;41.622;2.276;2023-01-04T14:48:41;22;18;
62591;PMS5003;48659;41.622;2.276;2023-01-04T14:51:09;38;37;
62591;PMS5003;48659;41.622;2.276;2023-01-04T14:53:41;12;10;
62591;PMS5003;48659;41.622;2.276;2023-01-04T14:56:10;15;15;
62591;PMS5003;48659;41.622;2.276;2023-01-04T14:58:39;9;9;
62591;PMS5003;48659;41.622;2.276;2023-01-04T15:01:08;8;8;
62591;PMS5003;48659;41.622;2.276;2023-01-04T15:03:36;12;11;
62591;PMS5003;48659;41.622;2.276;2023-01-04T15:06:04;11;9;
62591;PMS5003;48659;41.622;2.276;2023-01-04T15:08:32;12;11;
62591;PMS5003;48659;41.622;2.276;2023-01-04T15:11:00;6;6;
62591;PMS5003;48659;41.622;2.276;2023-01-04T15:13:28;18;18;
62591;PMS5003;48659;41.622;2.276;2023-01-04T15:15:56;12;9;
62591;PMS5003;48659;41.622;2.276;2023-01-04T15:18:24;10;10;
62591;PMS5003;48659;41.622;2.276;2023-01-04T15:20:51;10;10;
62591;PMS5003;48659;41.622;2.276;2023-01-04T15:23:19;11;10;
62591;PMS5003;48659;41.622;2.276;2023-01-04T15:25:46;11;8;
62591;PMS5003;48659;41.622;2.276;2023-01-04T15:28:13;19;18;
62591;PMS5003;48659;41.622;2.276;2023-01-04T15:30:40;15;15;
62591;PMS5003;48659;41.622;2.276;2023-01-04T15:33:08;10;10;
62591;PMS5003;48659;41.622;2.276;2023-01-04T15:35:36;11;11;
62591;PMS5003;48659;41.622;2.276;2023-01-04T15:38:03;13;11;
62591;PMS5003;48659;41.622;2.276;2023-01-04T15:40:30;7;7;
62591;PMS5003;48659;41.622;2.276;2023-01-04T15:42:57;9;9;
62591;PMS5003;48659;41.622;2.276;2023-01-04T15:45:25;10;9;
62591;PMS5003;48659;41.622;2.276;2023-01-04T15:47:52;14;14;
62591;PMS5003;48659;41.622;2.276;2023-01-04T15:50:20;10;10;
62591;PMS5003;48659;41.622;2.276;2023-01-04T15:52:48;14;14;
62591;PMS5003;48659;41.622;2.276;2023-01-04T15:55:16;16;13;
62591;PMS5003;48659;41.622;2.276;2023-01-04T15:57:44;9;7;
62591;PMS5003;48659;41.622;2.276;2023-01-04T16:00:12;14;11;
62591;PMS5003;48659;41.622;2.276;2023-01-04T16:02:40;14;14;
62591;PMS5003;48659;41.622;2.276;2023-01-04T16:05:12;10;10;
62591;PMS5003;48659;41.622;2.276;2023-01-04T16:07:39;10;10;
62591;PMS5003;48659;41.622;2.276;2023-01-04T16:10:07;13;13;
62591;PMS5003;48659;41.622;2.276;2023-01-04T16:12:36;12;10;
62591;PMS5003;48659;41.622;2.276;2023-01-04T16:15:04;12;10;
62591;PMS5003;48659;41.622;2.276;2023-01-04T16:17:32;15;13;
62591;PMS5003;48659;41.622;2.276;2023-01-04T16:20:00;16;14;
62591;PMS5003;48659;41.622;2.276;2023-01-04T16:22:28;12;12;
62591;PMS5003;48659;41.622;2.276;2023-01-04T16:24:56;17;13;
62591;PMS5003;48659;41.622;2.276;2023-01-04T16:27:23;15;15;
62591;PMS5003;48659;41.622;2.276;2023-01-04T16:29:51;16;16;
62591;PMS5003;48659;41.622;2.276;2023-01-04T16:32:18;19;19;
62591;PMS5003;48659;41.622;2.276;2023-01-04T16:34:45;20;19;
62591;PMS5003;48659;41.622;2.276;2023-01-04T16:37:15;25;24;
62591;PMS5003;48659;41.622;2.276;2023-01-04T16:39:44;29;25;
62591;PMS5003;48659;41.622;2.276;2023-01-04T16:42:13;34;31;
62591;PMS5003;48659;41.622;2.276;2023-01-04T16:44:41;31;28;
62591;PMS5003;48659;41.622;2.276;2023-01-04T16:47:08;57;53;
62591;PMS5003;48659;41.622;2.276;2023-01-04T16:49:36;44;37;
62591;PMS5003;48659;41.622;2.276;2023-01-04T16:52:03;38;37;